Time;durP1;ratioP1;P1;durP2;ratioP2;P2;SDS_P1;SDS_P2;PMS_P1;PMS_P2;Temp;Humidity;BMP_temperature;BMP_pressure;BME280_temperature;BME280_humidity;BME280_pressure;Samples;Min_cycle;Max_cycle;Signal;HPM_P1;HPM_P2
2022/01/27 00:05:20;;;;;;;39.60;24.02;;;;;;;2.85;84.78;102782.00;4719552;30;20052;-80
2022/01/27 00:08:03;;;;;;;33.33;20.15;;;;;;;2.85;85.23;102764.56;4719068;30;20048;-80
2022/01/27 00:12:55;;;;;;;41.35;22.35;;;;;;;2.79;85.24;102756.47;4733461;30;20043;-80
2022/01/27 00:15:28;;;;;;;47.15;24.05;;;;;;;2.84;85.08;102754.03;4733484;30;20041;-79
2022/01/27 00:17:59;;;;;;;38.35;21.92;;;;;;;2.84;84.62;102757.53;4732366;30;20044;-79
2022/01/27 00:20:24;;;;;;;35.95;19.85;;;;;;;2.82;84.77;102743.53;4719569;30;20473;-80
2022/01/27 00:22:50;;;;;;;39.70;20.67;;;;;;;2.87;84.55;102749.84;4704141;30;20097;-80
2022/01/27 00:25:15;;;;;;;33.78;19.42;;;;;;;2.87;85.06;102760.31;4718725;30;20108;-79
2022/01/27 00:27:41;;;;;;;41.05;23.35;;;;;;;2.87;84.45;102760.31;4734550;30;20052;-80
2022/01/27 00:30:09;;;;;;;38.80;23.15;;;;;;;2.85;85.04;102758.47;4718764;30;20049;-80
2022/01/27 00:32:34;;;;;;;36.38;23.10;;;;;;;2.91;84.74;102756.06;4733042;30;20102;-80
2022/01/27 00:35:01;;;;;;;30.70;18.92;;;;;;;2.89;84.71;102749.88;4733560;30;20040;-80
2022/01/27 00:37:27;;;;;;;43.38;24.27;;;;;;;2.86;84.72;102741.91;4718282;30;20052;-80
2022/01/27 00:39:53;;;;;;;37.13;21.83;;;;;;;2.86;84.92;102739.28;4704214;30;20041;-80
2022/01/27 00:42:19;;;;;;;39.33;22.33;;;;;;;2.88;84.44;102733.28;4703928;30;20041;-79
2022/01/27 00:44:44;;;;;;;40.40;23.23;;;;;;;2.92;84.61;102723.84;4732945;30;20102;-80
2022/01/27 00:47:10;;;;;;;46.30;26.38;;;;;;;2.90;84.02;102729.00;4718307;30;20044;-79
2022/01/27 00:49:37;;;;;;;41.03;22.10;;;;;;;2.91;84.18;102738.63;4718292;30;20485;-79
2022/01/27 00:52:03;;;;;;;35.60;18.42;;;;;;;2.90;84.36;102736.88;4732528;30;20052;-79
2022/01/27 00:54:30;;;;;;;41.83;21.58;;;;;;;2.89;84.35;102736.78;4718267;30;20358;-79
2022/01/27 00:59:43;;;;;;;38.80;22.70;;;;;;;2.92;84.15;102727.34;4733952;30;20045;-80
2022/01/27 01:02:17;;;;;;;;;;;;;;;3.03;83.94;102727.78;4720137;30;20401;-80
2022/01/27 01:04:47;;;;;;;39.70;19.90;;;;;;;2.92;84.48;102716.88;4718153;30;20004;-80
2022/01/27 01:07:14;;;;;;;44.25;23.90;;;;;;;2.98;84.20;102709.25;4732179;30;20048;-79
2022/01/27 01:15:17;;;;;;;39.92;20.80;;;;;;;2.91;84.34;102708.97;4708555;30;20431;-80
2022/01/27 01:17:58;;;;;;;42.45;22.67;;;;;;;2.94;84.77;102704.75;4731080;30;20109;-79
2022/01/27 01:20:36;;;;;;;37.70;21.92;;;;;;;2.98;84.37;102701.41;4732621;30;20048;-80
2022/01/27 01:33:40;;;;;;;32.47;20.27;;;;;;;2.99;84.53;102679.66;4732187;30;20048;-79
2022/01/27 01:36:15;;;;;;;42.25;23.95;;;;;;;2.97;84.34;102668.25;4717669;30;20124;-79
2022/01/27 01:38:43;;;;;;;39.97;20.13;;;;;;;3.05;83.96;102668.53;4718930;30;20063;-80
2022/01/27 01:41:08;;;;;;;40.80;21.83;;;;;;;3.08;84.07;102673.88;4732356;30;20029;-80
2022/01/27 01:43:34;;;;;;;36.55;22.98;;;;;;;3.05;84.28;102672.88;4732806;30;20032;-80
2022/01/27 01:46:00;;;;;;;39.15;21.92;;;;;;;3.03;84.46;102671.91;4717952;30;20051;-80
2022/01/27 01:48:25;;;;;;;40.15;23.33;;;;;;;3.07;84.40;102677.34;4703566;30;20511;-80
2022/01/27 01:50:51;;;;;;;40.25;22.42;;;;;;;3.08;84.00;102678.22;4718006;30;20043;-80
2022/01/27 01:53:17;;;;;;;41.50;23.25;;;;;;;3.08;84.14;102675.59;4732346;30;20068;-80
2022/01/27 01:55:42;;;;;;;39.22;22.55;;;;;;;3.06;84.78;102670.28;4732529;30;20075;-80
2022/01/27 01:58:08;;;;;;;36.00;20.48;;;;;;;3.11;84.62;102665.25;4732657;30;20412;-80
2022/01/27 02:00:34;;;;;;;32.97;21.77;;;;;;;3.10;84.19;102660.84;4733480;30;20105;-80
2022/01/27 02:03:00;;;;;;;40.33;22.75;;;;;;;3.05;84.42;102652.81;4732491;30;20063;-80
2022/01/27 02:05:31;;;;;;;37.22;22.20;;;;;;;3.12;84.16;102640.88;4717949;30;20032;-80
2022/01/27 02:18:41;;;;;;;40.08;24.98;;;;;;;3.21;84.15;102630.72;4719854;30;20676;-80
2022/01/27 02:21:07;;;;;;;33.17;21.30;;;;;;;3.20;84.23;102639.41;4733287;30;20124;-80
2022/01/27 02:23:32;;;;;;;34.78;20.42;;;;;;;3.18;84.29;102636.72;4732353;30;20049;-80
2022/01/27 02:25:58;;;;;;;39.45;20.73;;;;;;;3.15;84.29;102631.38;4717522;30;20128;-80
2022/01/27 02:28:23;;;;;;;42.10;22.95;;;;;;;3.17;84.07;102624.50;4733294;30;20043;-80
2022/01/27 02:30:49;;;;;;;37.08;21.15;;;;;;;3.19;84.62;102635.91;4717433;30;20055;-80
2022/01/27 02:33:14;;;;;;;37.83;22.92;;;;;;;3.17;84.31;102634.97;4732040;30;20084;-80
2022/01/27 02:35:40;;;;;;;34.33;20.77;;;;;;;3.14;84.27;102621.75;4732058;30;20131;-80
2022/01/27 02:38:05;;;;;;;30.05;20.02;;;;;;;3.13;84.47;102616.47;4702759;30;20649;-80
2022/01/27 02:40:39;;;;;;;39.33;23.05;;;;;;;3.17;84.61;102618.38;4733400;30;20033;-80
2022/01/27 02:43:05;;;;;;;36.63;22.88;;;;;;;3.15;84.55;102610.44;4733197;30;20401;-80
2022/01/27 02:45:32;;;;;;;41.60;22.15;;;;;;;3.19;84.98;102619.28;4717149;30;20052;-80
2022/01/27 02:47:58;;;;;;;34.53;17.40;;;;;;;3.20;84.15;102606.25;4733356;30;20040;-80
2022/01/27 02:50:23;;;;;;;36.45;21.75;;;;;;;3.24;84.31;102607.28;4730316;30;20055;-80
2022/01/27 02:52:49;;;;;;;36.13;22.10;;;;;;;3.17;84.75;102589.56;4702534;30;20049;-80
2022/01/27 02:55:14;;;;;;;35.45;20.92;;;;;;;3.19;84.86;102575.69;4718133;30;20085;-80
2022/01/27 02:57:40;;;;;;;36.65;20.17;;;;;;;3.18;84.49;102557.31;4688690;30;20045;-80
2022/01/27 03:00:06;;;;;;;36.42;21.10;;;;;;;3.14;84.81;102582.50;4717242;30;20490;-80
2022/01/27 03:02:34;;;;;;;38.20;22.45;;;;;;;3.17;85.10;102585.22;4717562;30;20059;-81
2022/01/27 03:04:59;;;;;;;35.28;21.15;;;;;;;3.14;84.83;102581.59;4717604;30;20109;-80
2022/01/27 03:07:25;;;;;;;41.05;21.30;;;;;;;3.16;85.34;102578.19;4703166;30;20458;-80
2022/01/27 03:09:50;;;;;;;37.15;21.27;;;;;;;3.11;85.51;102579.75;4719013;30;20033;-80
2022/01/27 03:12:17;;;;;;;32.58;17.70;;;;;;;3.16;85.57;102577.28;4717667;30;20045;-80
2022/01/27 03:14:43;;;;;;;35.92;21.15;;;;;;;3.22;84.71;102561.81;4717758;30;20517;-80
2022/01/27 03:17:10;;;;;;;35.45;20.75;;;;;;;3.17;85.32;102558.16;4723856;30;20036;-80
2022/01/27 03:19:37;;;;;;;31.70;17.50;;;;;;;3.18;85.54;102567.78;4735115;30;20547;-80
2022/01/27 03:22:04;;;;;;;37.45;20.58;;;;;;;3.14;85.87;102560.63;4720194;30;20441;-80
2022/01/27 03:24:30;;;;;;;40.05;21.40;;;;;;;3.13;85.58;102559.75;4736096;30;20040;-80
2022/01/27 03:26:56;;;;;;;34.75;21.98;;;;;;;3.14;85.76;102561.56;4736211;30;20120;-80
2022/01/27 03:29:22;;;;;;;40.40;21.15;;;;;;;3.11;85.79;102550.94;4734879;30;20430;-80
2022/01/27 03:31:49;;;;;;;37.42;20.45;;;;;;;3.15;85.76;102555.47;4734697;30;20066;-80
2022/01/27 03:34:15;;;;;;;35.65;20.48;;;;;;;3.14;85.72;102548.47;4736061;30;20466;-80
2022/01/27 03:36:41;;;;;;;33.78;19.50;;;;;;;3.13;86.20;102543.16;4705390;30;20061;-80
2022/01/27 03:39:08;;;;;;;31.25;18.65;;;;;;;3.13;86.14;102551.00;4734755;30;20116;-80
2022/01/27 03:41:36;;;;;;;35.90;19.65;;;;;;;3.13;86.44;102543.16;4734446;30;20123;-80
2022/01/27 03:44:02;;;;;;;37.15;20.88;;;;;;;3.13;86.64;102554.53;4734454;30;20056;-80
2022/01/27 03:46:28;;;;;;;35.10;19.08;;;;;;;3.14;85.87;102548.47;4719738;30;20041;-80
2022/01/27 03:48:53;;;;;;;41.90;19.60;;;;;;;3.16;86.44;102546.75;4705390;30;20442;-80
2022/01/27 03:51:19;;;;;;;39.85;22.20;;;;;;;3.17;86.00;102537.22;4735307;30;20040;-80
2022/01/27 03:53:44;;;;;;;36.15;20.33;;;;;;;3.15;86.19;102542.38;4734443;30;20059;-80
2022/01/27 03:56:10;;;;;;;39.35;20.38;;;;;;;3.17;86.42;102524.13;4719550;30;20053;-80
2022/01/27 03:58:36;;;;;;;42.05;19.52;;;;;;;3.18;86.20;102518.03;4719762;30;20040;-80
2022/01/27 04:01:05;;;;;;;31.58;16.95;;;;;;;3.21;85.87;102508.59;4733704;30;20079;-80
2022/01/27 04:03:34;;;;;;;41.45;20.27;;;;;;;3.18;85.81;102500.59;4734991;30;20386;-80
2022/01/27 04:06:06;;;;;;;33.13;18.98;;;;;;;3.15;86.28;102507.47;4735334;30;20443;-80
2022/01/27 04:08:36;;;;;;;40.72;22.90;;;;;;;3.12;86.71;102517.84;4734226;30;20045;-80
2022/01/27 04:11:02;;;;;;;42.95;22.08;;;;;;;3.10;86.62;102512.53;4719214;30;20064;-80
2022/01/27 04:13:27;;;;;;;30.95;17.70;;;;;;;3.11;86.67;102510.81;4734112;30;20044;-80
2022/01/27 04:15:53;;;;;;;36.92;20.55;;;;;;;3.08;87.09;102495.88;4733985;30;20040;-80
2022/01/27 04:18:18;;;;;;;36.90;19.73;;;;;;;3.11;86.99;102477.66;4704313;30;20044;-80
2022/01/27 04:20:44;;;;;;;40.88;20.70;;;;;;;3.07;86.79;102488.00;4733772;30;20234;-80
2022/01/27 04:23:09;;;;;;;40.38;22.67;;;;;;;3.06;87.55;102480.97;4734871;30;20028;-80
2022/01/27 04:25:38;;;;;;;37.83;21.63;;;;;;;3.00;88.13;102487.75;4733785;30;20049;-80
2022/01/27 04:28:11;;;;;;;36.35;20.23;;;;;;;3.08;87.64;102474.94;4733858;30;20057;-80
2022/01/27 04:30:36;;;;;;;38.17;19.88;;;;;;;3.03;87.51;102462.53;4734797;30;20110;-80
2022/01/27 04:33:04;;;;;;;28.40;16.75;;;;;;;3.03;87.51;102473.88;4719200;30;20044;-80
2022/01/27 04:35:34;;;;;;;32.75;19.17;;;;;;;3.07;87.90;102474.91;4733709;30;20462;-80
2022/01/27 04:49:01;;;;;;;39.17;21.33;;;;;;;3.01;88.42;102452.00;4720944;30;20129;-80
2022/01/27 04:51:28;;;;;;;32.88;18.00;;;;;;;3.04;87.92;102461.69;4708607;30;20124;-80
2022/01/27 04:56:21;;;;;;;37.35;20.05;;;;;;;3.02;88.62;102461.66;4700663;30;20045;-80
2022/01/27 04:58:51;;;;;;;32.63;17.50;;;;;;;2.99;88.96;102454.59;4716580;30;20045;-80
2022/01/27 05:01:19;;;;;;;38.70;19.80;;;;;;;3.00;88.62;102445.88;4716273;30;20128;-80
2022/01/27 05:03:50;;;;;;;34.58;19.95;;;;;;;3.03;89.21;102446.84;4687266;30;20065;-80
2022/01/27 05:06:15;;;;;;;37.20;19.55;;;;;;;3.02;88.86;102448.56;4687007;30;20045;-80
2022/01/27 05:08:42;;;;;;;30.85;18.83;;;;;;;3.06;89.02;102441.69;4716839;30;20376;-80
2022/01/27 05:13:41;;;;;;;34.15;17.55;;;;;;;3.07;88.86;102435.66;4701026;30;20152;-80
2022/01/27 05:16:07;;;;;;;37.95;19.17;;;;;;;3.07;89.42;102433.03;4686952;30;20041;-80
2022/01/27 05:18:33;;;;;;;28.30;15.95;;;;;;;3.12;88.70;102427.09;4700958;30;20044;-80
2022/01/27 05:20:58;;;;;;;36.85;18.25;;;;;;;3.10;89.17;102407.84;4716808;30;20071;-80
2022/01/27 05:23:24;;;;;;;35.45;17.58;;;;;;;3.14;88.56;102409.72;4716827;30;20048;-80
2022/01/27 05:25:50;;;;;;;34.58;18.17;;;;;;;3.20;88.76;102412.53;4716866;30;20123;-80
2022/01/27 05:28:15;;;;;;;36.53;18.42;;;;;;;3.21;89.34;102408.19;4715679;30;20135;-80
2022/01/27 05:30:41;;;;;;;38.50;22.27;;;;;;;3.26;88.84;102403.97;4701016;30;20044;-80
2022/01/27 05:33:09;;;;;;;37.85;16.42;;;;;;;3.35;88.78;102406.91;4715236;30;20550;-80
2022/01/27 05:35:35;;;;;;;39.58;21.00;;;;;;;3.33;88.91;102398.13;4722374;30;20056;-80
2022/01/27 05:38:01;;;;;;;32.65;17.58;;;;;;;3.38;88.54;102400.88;4732683;30;20044;-80
2022/01/27 05:40:27;;;;;;;33.85;17.10;;;;;;;3.41;88.62;102385.25;4732681;30;20109;-79
2022/01/27 05:42:53;;;;;;;31.95;18.23;;;;;;;3.47;88.80;102397.69;4733779;30;20028;-80
2022/01/27 05:45:19;;;;;;;32.70;17.98;;;;;;;3.47;88.46;102408.16;4732513;30;20056;-80
2022/01/27 05:47:44;;;;;;;35.17;20.35;;;;;;;3.51;88.34;102396.94;4732330;30;20478;-80
2022/01/27 05:50:10;;;;;;;31.67;17.38;;;;;;;3.59;88.33;102398.09;4716719;30;20363;-80
2022/01/27 05:52:36;;;;;;;26.38;14.27;;;;;;;3.63;87.99;102410.41;4716092;30;20045;-80
2022/01/27 05:55:01;;;;;;;33.42;18.25;;;;;;;3.63;87.87;102418.28;4716287;30;20124;-80
2022/01/27 05:57:27;;;;;;;35.70;17.95;;;;;;;3.65;87.93;102411.38;4714651;30;20139;-80
2022/01/27 05:59:52;;;;;;;35.00;18.05;;;;;;;3.69;87.85;102401.88;4714370;30;20033;-80
2022/01/27 06:02:18;;;;;;;36.95;17.25;;;;;;;3.71;88.84;102400.19;4715893;30;20075;-80
2022/01/27 06:04:43;;;;;;;33.35;18.05;;;;;;;3.68;88.79;102387.88;4714684;30;20123;-80
2022/01/27 06:07:09;;;;;;;32.75;16.77;;;;;;;3.72;88.87;102375.78;4699913;30;20485;-80
2022/01/27 06:09:34;;;;;;;34.80;17.60;;;;;;;3.72;89.35;102379.28;4714692;30;20041;-80
2022/01/27 06:12:00;;;;;;;31.10;16.13;;;;;;;3.75;89.28;102383.72;4699909;30;20107;-80
2022/01/27 06:14:25;;;;;;;37.78;19.23;;;;;;;3.75;89.12;102381.09;4699881;30;20410;-80
2022/01/27 06:16:51;;;;;;;33.83;17.45;;;;;;;3.72;89.76;102384.53;4699799;30;20414;-80
2022/01/27 06:19:16;;;;;;;36.42;19.63;;;;;;;3.70;89.61;102373.09;4692273;30;20052;-80
2022/01/27 06:21:44;;;;;;;30.52;18.92;;;;;;;3.70;90.10;102373.09;4702802;30;20045;-80
2022/01/27 06:24:10;;;;;;;36.13;18.40;;;;;;;3.69;90.41;102378.31;4732078;30;20051;-80
2022/01/27 06:26:35;;;;;;;37.40;19.17;;;;;;;3.69;90.67;102388.78;4731747;30;20032;-80
2022/01/27 06:29:01;;;;;;;39.42;19.92;;;;;;;3.76;90.05;102370.69;4731881;30;20044;-81
2022/01/27 06:31:26;;;;;;;41.90;18.52;;;;;;;3.81;89.79;102365.59;4702946;30;20049;-80
2022/01/27 06:33:52;;;;;;;32.63;18.02;;;;;;;3.73;90.66;102367.06;4731920;30;20058;-80
2022/01/27 06:36:19;;;;;;;28.85;16.40;;;;;;;3.81;89.83;102357.72;4733257;30;20367;-81
2022/01/27 06:38:44;;;;;;;37.17;19.10;;;;;;;3.75;90.42;102354.91;4717376;30;20057;-80
2022/01/27 06:41:10;;;;;;;32.78;18.42;;;;;;;3.72;90.45;102347.84;4717415;30;20048;-80
2022/01/27 06:43:36;;;;;;;33.30;17.27;;;;;;;3.72;90.56;102347.84;4717304;30;20041;-80
2022/01/27 06:46:01;;;;;;;32.10;17.42;;;;;;;3.83;90.13;102356.94;4731514;30;20048;-81
2022/01/27 06:48:29;;;;;;;38.78;19.20;;;;;;;3.77;90.74;102355.84;4702717;30;20124;-81
2022/01/27 06:50:56;;;;;;;34.22;19.60;;;;;;;3.77;91.04;102350.59;4731373;30;20480;-80
2022/01/27 06:53:22;;;;;;;39.28;21.27;;;;;;;3.78;90.48;102352.38;4717403;30;20037;-81
2022/01/27 06:55:49;;;;;;;35.45;19.63;;;;;;;3.79;90.62;102344.56;4731714;30;20048;-81
2022/01/27 06:58:14;;;;;;;38.47;19.15;;;;;;;3.77;90.63;102348.88;4717182;30;20063;-81
2022/01/27 07:00:40;;;;;;;40.35;20.63;;;;;;;3.77;91.43;102358.47;4716737;30;20068;-81
2022/01/27 07:03:06;;;;;;;38.90;18.95;;;;;;;3.80;90.87;102358.56;4716906;30;20040;-81
2022/01/27 07:05:33;;;;;;;34.97;20.38;;;;;;;3.83;90.90;102354.31;4717141;30;20052;-81
2022/01/27 07:07:59;;;;;;;40.90;19.70;;;;;;;3.79;90.93;102341.94;4731500;30;20092;-81
2022/01/27 07:10:25;;;;;;;40.78;20.75;;;;;;;3.84;91.34;102344.69;4731884;30;20041;-81
2022/01/27 07:12:50;;;;;;;36.65;19.83;;;;;;;3.85;91.01;102339.50;4716868;30;20048;-81
2022/01/27 07:15:16;;;;;;;40.08;19.95;;;;;;;3.85;91.35;102352.59;4731406;30;20049;-81
2022/01/27 07:17:42;;;;;;;37.55;17.55;;;;;;;3.88;90.93;102339.59;4731169;30;20228;-81
2022/01/27 07:20:08;;;;;;;42.92;20.25;;;;;;;3.93;90.68;102362.41;4731446;30;20035;-81
2022/01/27 07:22:35;;;;;;;37.45;20.30;;;;;;;3.88;91.29;102360.56;4730884;30;20143;-81
2022/01/27 07:25:02;;;;;;;35.50;17.30;;;;;;;4.00;90.80;102373.13;4731335;30;20044;-81
2022/01/27 07:27:28;;;;;;;35.85;19.48;;;;;;;3.96;91.21;102370.41;4716432;30;20504;-81
2022/01/27 07:29:53;;;;;;;42.85;19.58;;;;;;;3.94;91.67;102379.94;4716469;30;20044;-81
2022/01/27 07:32:19;;;;;;;37.25;18.10;;;;;;;3.99;91.22;102370.47;4716401;30;20049;-81
2022/01/27 07:34:44;;;;;;;39.03;20.10;;;;;;;3.96;91.43;102373.91;4730949;30;20049;-81
2022/01/27 07:37:10;;;;;;;40.45;18.90;;;;;;;4.00;91.13;102373.13;4732749;30;20394;-81
2022/01/27 07:39:35;;;;;;;42.25;21.80;;;;;;;4.05;91.10;102360.16;4719774;30;20051;-81
2022/01/27 07:42:01;;;;;;;39.42;19.60;;;;;;;4.06;91.29;102360.22;4734378;30;20094;-81
2022/01/27 07:44:30;;;;;;;36.10;18.30;;;;;;;4.04;92.11;102369.75;4734049;30;20509;-80
2022/01/27 07:46:56;;;;;;;38.70;20.48;;;;;;;3.99;93.75;102363.50;4719559;30;20037;-79
2022/01/27 07:49:22;;;;;;;41.03;20.52;;;;;;;3.97;94.13;102370.44;4719350;30;20041;-78
2022/01/27 07:51:47;;;;;;;49.85;23.85;;;;;;;3.96;94.54;102370.41;4716099;30;20041;-79
2022/01/27 07:54:13;;;;;;;40.35;17.35;;;;;;;3.94;96.08;102372.97;4702207;30;20045;-79
2022/01/27 07:56:38;;;;;;;45.47;22.58;;;;;;;3.95;95.62;102382.59;4717611;30;20370;-81
2022/01/27 07:59:04;;;;;;;43.53;21.92;;;;;;;3.94;96.69;102372.06;4716016;30;20052;-80
2022/01/27 08:01:29;;;;;;;42.47;20.70;;;;;;;3.97;96.83;102374.78;4701505;30;20065;-79
2022/01/27 08:03:55;;;;;;;51.30;23.55;;;;;;;3.98;97.07;102371.31;4716407;30;20048;-81
2022/01/27 08:06:21;;;;;;;45.38;20.75;;;;;;;3.97;97.69;102369.53;4730697;30;20029;-81
2022/01/27 08:08:47;;;;;;;48.85;22.52;;;;;;;3.92;98.54;102372.03;4717478;30;20402;-82
2022/01/27 08:11:13;;;;;;;48.92;22.25;;;;;;;3.92;99.00;102368.53;4730941;30;20045;-82
2022/01/27 08:13:40;;;;;;;50.80;24.63;;;;;;;3.98;98.04;102364.34;4716047;30;20037;-82
2022/01/27 08:16:06;;;;;;;44.95;22.67;;;;;;;3.93;99.76;102370.28;4730952;30;20068;-82
2022/01/27 08:18:31;;;;;;;50.38;23.05;;;;;;;3.92;100.00;102379.00;4732544;30;20409;-82
2022/01/27 08:20:57;;;;;;;54.28;26.10;;;;;;;3.90;100.00;102376.31;4733481;30;20111;-83
2022/01/27 08:23:22;;;;;;;55.78;28.20;;;;;;;3.89;100.00;102369.31;4733969;30;20057;-84
2022/01/27 08:25:53;;;;;;;53.20;25.45;;;;;;;3.92;100.00;102368.53;4733537;30;20060;-83
2022/01/27 08:28:33;;;;;;;55.58;24.25;;;;;;;3.92;100.00;102363.28;4732650;30;20466;-84
2022/01/27 08:30:59;;;;;;;53.70;27.50;;;;;;;3.93;100.00;102370.28;4732736;30;20060;-85
2022/01/27 08:33:29;;;;;;;53.55;26.13;;;;;;;3.96;100.00;102373.03;4718613;30;20345;-84
2022/01/27 08:35:55;;;;;;;53.85;27.35;;;;;;;3.95;100.00;102366.88;4733058;30;20056;-85
2022/01/27 08:38:20;;;;;;;48.30;24.27;;;;;;;3.94;100.00;102370.34;4719097;30;20044;-84
2022/01/27 08:40:46;;;;;;;50.85;24.70;;;;;;;4.00;100.00;102367.00;4734254;30;20116;-86
2022/01/27 08:43:12;;;;;;;56.10;25.67;;;;;;;3.99;100.00;102365.25;4689728;30;20084;-84
2022/01/27 08:45:39;;;;;;;56.22;26.02;;;;;;;3.99;100.00;102362.63;4734191;30;20135;-89
2022/01/27 08:48:10;;;;;;;53.35;27.65;;;;;;;4.01;100.00;102366.19;4733604;30;20557;-88
2022/01/27 08:50:35;;;;;;;51.63;24.45;;;;;;;4.08;100.00;102352.41;4729012;30;20132;-86
2022/01/27 08:53:02;;;;;;;56.90;26.52;;;;;;;4.06;100.00;102362.84;4701429;30;20124;-89
2022/01/27 08:55:28;;;;;;;55.28;26.98;;;;;;;4.09;100.00;102367.28;4695064;30;20089;-87
2022/01/27 08:57:54;;;;;;;49.30;25.80;;;;;;;4.08;100.00;102362.91;4718842;30;20121;-89
2022/01/27 09:00:21;;;;;;;54.70;29.42;;;;;;;4.10;100.00;102366.44;4718124;30;20137;-87
2022/01/27 09:02:46;;;;;;;42.55;22.38;;;;;;;4.16;100.00;102361.38;4733133;30;20052;-86
2022/01/27 09:05:15;;;;;;;40.85;23.15;;;;;;;4.23;100.00;102362.44;4700714;30;20474;-85
2022/01/27 09:07:41;;;;;;;54.80;27.92;;;;;;;4.17;100.00;102355.28;4715578;30;20394;-88
2022/01/27 09:10:07;;;;;;;47.55;20.80;;;;;;;4.23;100.00;102359.84;4728700;30;20048;-88
2022/01/27 09:12:32;;;;;;;51.42;24.35;;;;;;;4.22;100.00;102363.28;4732663;30;20040;-88
2022/01/27 09:14:59;;;;;;;42.90;20.25;;;;;;;4.25;100.00;102356.41;4686569;30;20049;-88
2022/01/27 09:17:26;;;;;;;52.28;27.52;;;;;;;4.27;100.00;102359.03;4701005;30;20143;-89
2022/01/27 09:19:53;;;;;;;47.65;22.85;;;;;;;4.34;100.00;102354.88;4701451;30;20404;-87
2022/01/27 09:22:19;;;;;;;48.75;26.35;;;;;;;4.36;100.00;102355.81;4729101;30;20043;-89
2022/01/27 09:27:16;;;;;;;44.97;24.60;;;;;;;4.41;100.00;102354.19;4732506;30;20059;-87
2022/01/27 09:29:42;;;;;;;41.13;21.02;;;;;;;4.45;100.00;102345.56;4732278;30;20120;-87
2022/01/27 09:32:09;;;;;;;43.65;21.65;;;;;;;4.46;100.00;102352.59;4703002;30;20193;-88
2022/01/27 09:34:36;;;;;;;43.85;23.25;;;;;;;4.49;100.00;102352.66;4717693;30;20040;-88
2022/01/27 09:37:02;;;;;;;40.63;20.23;;;;;;;4.53;100.00;102351.91;4717522;30;20446;-88
2022/01/27 09:39:29;;;;;;;46.70;22.27;;;;;;;4.55;100.00;102352.84;4717912;30;20044;-87
2022/01/27 09:41:57;;;;;;;42.72;22.42;;;;;;;4.58;100.00;102347.69;4689039;30;20131;-89
2022/01/27 09:44:29;;;;;;;33.83;19.05;;;;;;;4.66;100.00;102358.38;4717342;30;20481;-88
2022/01/27 09:46:59;;;;;;;35.45;19.08;;;;;;;4.67;100.00;102358.44;4732093;30;20036;-87
2022/01/27 09:49:33;;;;;;;38.70;20.37;;;;;;;4.69;100.00;102351.47;4717318;30;20044;-89
2022/01/27 09:52:00;;;;;;;29.58;18.08;;;;;;;4.71;100.00;102357.66;4718140;30;20143;-88
2022/01/27 09:54:25;;;;;;;37.80;19.42;;;;;;;4.76;100.00;102355.16;4731976;30;20033;-89
2022/01/27 09:56:53;;;;;;;31.13;15.57;;;;;;;4.80;100.00;102366.59;4729079;30;20084;-87
2022/01/27 09:59:19;;;;;;;33.72;18.25;;;;;;;4.83;100.00;102371.94;4712401;30;20041;-88
2022/01/27 10:02:02;;;;;;;34.25;18.00;;;;;;;4.89;100.00;102364.22;4702859;30;20044;-88
2022/01/27 10:04:47;;;;;;;30.40;17.80;;;;;;;4.90;100.00;102371.28;4727008;30;20044;-88
2022/01/27 10:07:16;;;;;;;36.47;18.17;;;;;;;4.92;100.00;102366.91;4727189;30;20389;-85
2022/01/27 10:10:16;;;;;;;27.02;15.10;;;;;;;4.98;100.00;102358.34;4729486;30;20037;-87
2022/01/27 10:12:47;;;;;;;30.38;15.13;;;;;;;5.00;100.00;102354.00;4672020;30;20049;-88
2022/01/27 10:15:19;;;;;;;27.13;13.93;;;;;;;5.01;100.00;102361.03;4725381;30;20184;-88
2022/01/27 10:18:18;;;;;;;24.75;14.10;;;;;;;5.05;100.00;102363.78;4715434;30;20342;-88
2022/01/27 10:21:04;;;;;;;28.42;13.82;;;;;;;5.13;100.00;102363.97;4710200;30;20049;-88
2022/01/27 10:23:33;;;;;;;23.05;13.23;;;;;;;5.14;100.00;102363.09;4729531;30;20126;-89
2022/01/27 10:26:12;;;;;;;22.83;12.93;;;;;;;5.13;100.00;102353.47;4725661;30;20040;-88
2022/01/27 10:28:47;;;;;;;19.02;11.02;;;;;;;5.22;100.00;102358.03;4710821;30;20045;-89
2022/01/27 10:31:20;;;;;;;21.48;12.35;;;;;;;5.23;100.00;102357.22;4719313;30;20386;-88
2022/01/27 10:34:05;;;;;;;17.35;12.35;;;;;;;5.25;100.00;102359.00;4731876;30;20051;-89
2022/01/27 10:36:39;;;;;;;21.92;10.77;;;;;;;5.23;100.00;102351.94;4720243;30;20039;-88
2022/01/27 10:39:08;;;;;;;19.15;12.85;;;;;;;5.24;100.00;102358.97;4718060;30;20048;-88
2022/01/27 10:41:36;;;;;;;19.48;11.68;;;;;;;5.28;100.00;102366.09;4729414;30;20049;-89
2022/01/27 10:44:08;;;;;;;24.02;12.95;;;;;;;5.31;100.00;102367.03;4713414;30;20139;-89
2022/01/27 10:46:34;;;;;;;16.67;11.02;;;;;;;5.35;100.00;102360.13;4715948;30;20567;-88
2022/01/27 10:49:17;;;;;;;22.95;12.57;;;;;;;5.35;100.00;102362.75;4729640;30;20493;-88
2022/01/27 10:51:50;;;;;;;18.02;11.02;;;;;;;5.39;100.00;102362.00;4731823;30;20055;-88
2022/01/27 10:54:33;;;;;;;24.70;13.35;;;;;;;5.41;100.00;102373.41;4713205;30;20389;-88
2022/01/27 10:57:03;;;;;;;23.00;12.98;;;;;;;5.44;100.00;102365.63;4713873;30;20041;-87
2022/01/27 10:59:32;;;;;;;22.65;11.75;;;;;;;5.48;100.00;102370.06;4728169;30;20053;-89
2022/01/27 11:01:58;;;;;;;19.48;10.27;;;;;;;5.48;100.00;102367.44;4727347;30;20061;-87
2022/01/27 11:04:37;;;;;;;19.08;11.77;;;;;;;5.58;100.00;102358.91;4712354;30;20037;-88
2022/01/27 11:07:06;;;;;;;22.80;11.88;;;;;;;5.55;100.00;102344.81;4712959;30;20490;-88
2022/01/27 11:09:38;;;;;;;17.20;10.63;;;;;;;5.57;100.00;102356.28;4734808;30;20374;-88
2022/01/27 11:12:14;;;;;;;18.67;12.13;;;;;;;5.60;100.00;102353.69;4714431;30;20044;-88
2022/01/27 11:14:41;;;;;;;20.13;10.90;;;;;;;5.66;100.00;102358.19;4721457;30;20032;-89
2022/01/27 11:17:09;;;;;;;17.83;12.05;;;;;;;5.66;100.00;102343.31;4730119;30;20024;-88
2022/01/27 11:22:29;;;;;;;;;;;;;;;5.75;100.00;102340.00;4717413;30;20056;-89
2022/01/27 11:27:34;;;;;;;17.90;10.73;;;;;;;5.78;100.00;102329.56;4716821;30;20049;-88
2022/01/27 11:30:10;;;;;;;20.02;11.60;;;;;;;5.79;100.00;102339.25;4718654;30;20362;-88
2022/01/27 11:32:36;;;;;;;23.58;12.63;;;;;;;5.81;100.00;102332.25;4740895;30;20077;-89
2022/01/27 11:35:19;;;;;;;25.55;14.90;;;;;;;5.86;100.00;102309.59;4719268;30;20467;-88
2022/01/27 11:37:50;;;;;;;19.90;12.18;;;;;;;5.86;100.00;102320.13;4729114;30;20160;-89
2022/01/27 11:40:18;;;;;;;32.63;15.38;;;;;;;5.88;100.00;102317.50;4733313;30;20102;-88
2022/01/27 11:43:01;;;;;;;24.73;13.43;;;;;;;5.89;100.00;102303.53;4730966;30;20032;-89
2022/01/27 11:45:34;;;;;;;20.75;11.20;;;;;;;5.92;100.00;102306.22;4734789;30;20047;-87
2022/01/27 11:48:27;;;;;;;26.80;13.43;;;;;;;5.93;100.00;102306.22;4720746;30;20107;-87
2022/01/27 11:51:12;;;;;;;20.80;12.57;;;;;;;5.95;100.00;102311.56;4728163;30;20161;-88
2022/01/27 11:53:39;;;;;;;28.75;14.57;;;;;;;5.96;100.00;102311.59;4715742;30;20497;-88
2022/01/27 11:56:29;;;;;;;23.85;12.35;;;;;;;5.97;100.00;102304.59;4716237;30;20495;-88
2022/01/27 11:59:00;;;;;;;22.40;12.63;;;;;;;5.97;100.00;102302.84;4714095;30;20134;-87
2022/01/27 12:01:34;;;;;;;24.23;11.88;;;;;;;6.05;100.00;102324.03;4702025;30;20061;-87
2022/01/27 12:04:06;;;;;;;23.40;12.82;;;;;;;6.05;100.00;102313.50;4698325;30;20037;-89
2022/01/27 12:06:47;;;;;;;21.83;11.68;;;;;;;6.08;100.00;102310.94;4735081;30;20053;-88
2022/01/27 12:09:21;;;;;;;26.33;10.93;;;;;;;6.10;100.00;102287.31;4748372;30;20461;-87
2022/01/27 12:11:50;;;;;;;16.27;9.93;;;;;;;6.11;100.00;102310.09;4752095;30;20406;-87
2022/01/27 12:14:21;;;;;;;24.23;12.48;;;;;;;6.13;100.00;102304.06;4736750;30;20036;-88
2022/01/27 12:17:09;;;;;;;23.13;11.18;;;;;;;6.19;100.00;102306.78;4747066;30;20136;-88
2022/01/27 12:20:08;;;;;;;25.27;12.07;;;;;;;6.23;100.00;102298.13;4727537;30;20511;-88